Terminal Aerodrome Forecast
Issued by NWS

Current Version | Previous Version | Graphics & Text | Print | Product List | Glossary On
Versions: 1 2 3 4 5 6 7 8 9 10 11 12 13 14 15 16 17 18 19
000
FTUS41 KPBZ 280600 AAA
TAFHLG
TAF AMD
KHLG 280641Z 2807/2906 26008G16KT 4SM -RA OVC015
     FM280700 26006KT 2SM -RA BR OVC007
     FM281200 30007KT P6SM -SHRA OVC015
     FM281700 30006KT P6SM BKN025=

USA.gov is the U.S. government's official web portal to all federal, state and local government web resources and services.